createdAt,value
2023-02-19T00:02:04.238Z,7.53
2023-02-19T00:04:30.667Z,7.53
2023-02-19T00:06:57.011Z,7.54
2023-02-19T00:09:23.423Z,7.57
2023-02-19T00:11:49.930Z,7.53
2023-02-19T00:14:19.424Z,7.56
2023-02-19T00:16:46.200Z,7.53
2023-02-19T00:19:15.850Z,7.52
2023-02-19T00:21:42.849Z,7.51
2023-02-19T00:24:13.333Z,7.50
2023-02-19T00:26:41.533Z,7.50
2023-02-19T00:29:12.235Z,7.49
2023-02-19T00:31:38.812Z,7.46
2023-02-19T00:34:06.371Z,7.50
2023-02-19T00:36:36.334Z,7.50
2023-02-19T00:39:03.994Z,7.52
2023-02-19T00:41:30.583Z,7.48
2023-02-19T00:44:05.200Z,7.49
2023-02-19T00:46:37.108Z,7.48
2023-02-19T00:49:05.644Z,7.47
2023-02-19T00:51:34.784Z,7.47
2023-02-19T00:54:01.577Z,7.50
2023-02-19T00:56:28.069Z,7.47
2023-02-19T00:58:54.735Z,7.44
2023-02-19T01:01:21.610Z,7.44
2023-02-19T01:03:48.776Z,7.46
2023-02-19T01:06:17.910Z,7.48
2023-02-19T01:08:44.995Z,7.47
2023-02-19T01:11:12.879Z,7.50
2023-02-19T01:13:40.201Z,7.52
2023-02-19T01:16:24.727Z,7.54
2023-02-19T01:18:51.836Z,7.54
2023-02-19T01:21:21.728Z,7.52
2023-02-19T01:23:49.307Z,7.53
2023-02-19T01:26:18.918Z,7.45
2023-02-19T01:28:46.008Z,7.45
2023-02-19T01:31:15.621Z,7.43
2023-02-19T01:33:53.219Z,7.43
2023-02-19T01:36:19.763Z,7.42
2023-02-19T01:38:46.784Z,7.37
2023-02-19T01:41:15.967Z,7.35
2023-02-19T01:44:28.649Z,7.34
2023-02-19T01:46:57.605Z,7.31
2023-02-19T01:49:35.020Z,7.29
2023-02-19T01:52:32.568Z,7.29
2023-02-19T01:55:01.299Z,7.31
2023-02-19T01:57:31.931Z,7.28
2023-02-19T02:00:04.170Z,7.30
2023-02-19T02:02:30.720Z,7.32
2023-02-19T02:05:00.126Z,7.31
2023-02-19T02:07:45.772Z,7.28
2023-02-19T02:10:21.587Z,7.27
2023-02-19T02:12:49.704Z,7.30
2023-02-19T02:15:17.016Z,7.28
2023-02-19T02:18:29.081Z,7.27
2023-02-19T02:20:58.349Z,7.27
2023-02-19T02:23:55.895Z,7.27
2023-02-19T02:26:25.587Z,7.26
2023-02-19T02:29:00.973Z,7.25
2023-02-19T02:31:39.273Z,7.25
2023-02-19T02:34:17.467Z,7.25
2023-02-19T02:36:47.635Z,7.27
2023-02-19T02:39:17.376Z,7.25
2023-02-19T02:41:46.247Z,7.23
2023-02-19T02:44:12.750Z,7.20
2023-02-19T02:46:44.899Z,7.19
2023-02-19T02:49:22.041Z,7.19
2023-02-19T02:51:52.444Z,7.17
2023-02-19T02:54:42.739Z,7.15
2023-02-19T02:57:14.701Z,7.16
2023-02-19T02:59:42.896Z,7.13
2023-02-19T03:02:23.747Z,7.14
2023-02-19T03:05:38.247Z,7.15
2023-02-19T03:08:12.269Z,7.15
2023-02-19T03:10:54.393Z,7.17
2023-02-19T03:13:46.968Z,7.16
2023-02-19T03:16:41.678Z,7.20
2023-02-19T03:19:21.581Z,7.19
2023-02-19T03:22:01.702Z,7.21
2023-02-19T03:24:53.701Z,7.19
2023-02-19T03:27:21.954Z,7.20
2023-02-19T03:29:51.960Z,7.18
2023-02-19T03:32:40.756Z,7.18
2023-02-19T03:35:14.625Z,7.16
2023-02-19T03:37:58.171Z,7.21
2023-02-19T03:40:29.464Z,7.22
2023-02-19T03:43:10.773Z,7.22
2023-02-19T03:45:46.459Z,7.18
2023-02-19T03:48:34.949Z,7.16
2023-02-19T03:51:26.201Z,7.09
2023-02-19T03:54:02.986Z,7.06
2023-02-19T03:56:39.064Z,7.05
2023-02-19T03:59:21.527Z,7.06
2023-02-19T04:01:54.002Z,7.06
2023-02-19T04:04:54.779Z,7.05
2023-02-19T04:07:22.679Z,7.08
2023-02-19T04:09:51.492Z,7.11
2023-02-19T04:12:19.166Z,7.14
2023-02-19T04:14:52.527Z,7.13
2023-02-19T04:17:34.123Z,7.14
2023-02-19T04:20:03.971Z,7.13
2023-02-19T04:22:31.092Z,7.12
2023-02-19T04:24:57.849Z,7.14
2023-02-19T04:27:24.288Z,7.11
2023-02-19T04:29:50.743Z,7.05
2023-02-19T04:32:17.173Z,7.04
2023-02-19T04:34:43.691Z,7.02
2023-02-19T04:37:10.175Z,7.04
2023-02-19T04:39:36.661Z,7.04
2023-02-19T04:42:03.244Z,7.01
2023-02-19T04:44:29.715Z,6.96
2023-02-19T04:46:56.175Z,6.93
2023-02-19T04:49:22.560Z,6.95
2023-02-19T04:51:48.941Z,6.91
2023-02-19T04:54:15.370Z,6.91
2023-02-19T04:56:41.741Z,6.88
2023-02-19T04:59:08.122Z,6.89
2023-02-19T05:01:34.606Z,6.90
2023-02-19T05:04:01.121Z,6.86
2023-02-19T05:06:27.728Z,6.84
2023-02-19T05:08:54.185Z,6.85
2023-02-19T05:11:20.641Z,6.84
2023-02-19T05:13:47.100Z,6.86
2023-02-19T05:16:16.041Z,6.87
2023-02-19T05:18:44.084Z,6.85
2023-02-19T05:21:12.219Z,6.83
2023-02-19T05:23:39.175Z,6.84
2023-02-19T05:26:17.015Z,6.84
2023-02-19T05:28:44.951Z,6.82
2023-02-19T05:31:12.503Z,6.83
2023-02-19T05:33:40.090Z,6.83
2023-02-19T05:36:09.758Z,6.83
2023-02-19T05:38:36.760Z,6.81
2023-02-19T05:41:14.831Z,6.80
2023-02-19T05:43:42.809Z,6.81
2023-02-19T05:46:10.853Z,6.80
2023-02-19T05:48:37.541Z,6.83
2023-02-19T05:51:06.588Z,6.81
2023-02-19T05:53:33.835Z,6.82
2023-02-19T05:56:00.278Z,6.82
2023-02-19T05:58:27.696Z,6.83
2023-02-19T06:00:54.870Z,6.83
2023-02-19T06:03:22.057Z,6.84
2023-02-19T06:05:48.570Z,6.84
2023-02-19T06:08:15.924Z,6.83
2023-02-19T06:10:42.703Z,6.81
2023-02-19T06:13:09.800Z,6.80
2023-02-19T06:15:37.249Z,6.79
2023-02-19T06:18:04.185Z,6.77
2023-02-19T06:20:30.607Z,6.75
2023-02-19T06:22:57.032Z,6.72
2023-02-19T06:25:23.439Z,6.69
2023-02-19T06:27:49.856Z,6.66
2023-02-19T06:30:16.412Z,6.65
2023-02-19T06:32:42.787Z,6.65
2023-02-19T06:35:09.156Z,6.60
2023-02-19T06:37:35.592Z,6.53
2023-02-19T06:40:02.043Z,6.51
2023-02-19T06:42:32.618Z,6.47
2023-02-19T06:44:59.090Z,6.42
2023-02-19T06:47:25.612Z,6.39
2023-02-19T06:49:52.040Z,6.38
2023-02-19T06:52:18.462Z,6.37
2023-02-19T06:54:44.858Z,6.33
2023-02-19T06:57:11.231Z,6.25
2023-02-19T06:59:37.589Z,6.25
2023-02-19T07:02:04.120Z,6.24
2023-02-19T07:04:30.652Z,6.18
2023-02-19T07:06:57.310Z,6.15
2023-02-19T07:09:25.340Z,6.10
2023-02-19T07:11:52.330Z,6.08
2023-02-19T07:14:18.969Z,6.08
2023-02-19T07:16:47.328Z,6.07
2023-02-19T07:19:15.306Z,6.03
2023-02-19T07:21:42.495Z,6.04
2023-02-19T07:24:09.979Z,5.99
2023-02-19T07:26:36.571Z,5.97
2023-02-19T07:29:02.980Z,5.97
2023-02-19T07:31:29.641Z,5.96
2023-02-19T07:33:56.239Z,5.91
2023-02-19T07:36:24.034Z,5.91
2023-02-19T07:38:57.478Z,5.87
2023-02-19T07:41:24.909Z,5.86
2023-02-19T07:43:51.661Z,5.87
2023-02-19T07:46:18.108Z,5.83
2023-02-19T07:48:44.772Z,5.81
2023-02-19T07:51:18.828Z,5.81
2023-02-19T07:53:46.675Z,5.89
2023-02-19T07:56:13.519Z,5.90
2023-02-19T07:58:40.473Z,5.96
2023-02-19T08:01:15.488Z,6.00
2023-02-19T08:03:43.071Z,6.00
2023-02-19T08:06:11.197Z,6.06
2023-02-19T08:08:39.068Z,6.20
2023-02-19T08:11:24.984Z,6.30
2023-02-19T08:13:53.254Z,6.39
2023-02-19T08:16:30.026Z,6.49
2023-02-19T08:19:03.675Z,6.49
2023-02-19T08:21:30.156Z,6.48
2023-02-19T08:23:56.602Z,6.46
2023-02-19T08:26:22.955Z,6.39
2023-02-19T08:28:49.300Z,6.39
2023-02-19T08:31:15.988Z,6.41
2023-02-19T08:33:42.446Z,6.34
2023-02-19T08:36:09.841Z,6.28
2023-02-19T08:38:37.677Z,6.22
2023-02-19T08:41:06.133Z,6.23
2023-02-19T08:43:32.598Z,6.23
2023-02-19T08:45:59.380Z,6.14
2023-02-19T08:48:25.896Z,6.27
2023-02-19T08:51:11.932Z,6.33
2023-02-19T08:53:39.876Z,6.38
2023-02-19T08:56:11.745Z,6.43
2023-02-19T08:58:38.738Z,6.59
2023-02-19T09:01:14.638Z,6.52
2023-02-19T09:03:41.586Z,6.39
2023-02-19T09:06:11.150Z,6.19
2023-02-19T09:08:37.700Z,6.16
2023-02-19T09:11:06.950Z,6.27
2023-02-19T09:13:33.371Z,6.42
2023-02-19T09:15:59.941Z,6.64
2023-02-19T09:18:26.825Z,6.76
2023-02-19T09:20:53.342Z,6.52
2023-02-19T09:23:20.161Z,6.43
2023-02-19T09:25:46.693Z,6.37
2023-02-19T09:28:13.201Z,6.39
2023-02-19T09:30:39.781Z,6.15
2023-02-19T09:33:06.218Z,6.09
2023-02-19T09:35:32.671Z,6.09
2023-02-19T09:38:01.881Z,6.08
2023-02-19T09:40:30.329Z,6.09
2023-02-19T09:42:57.044Z,6.10
2023-02-19T09:45:26.067Z,6.13
2023-02-19T09:47:57.912Z,6.24
2023-02-19T09:50:34.200Z,6.28
2023-02-19T09:53:04.547Z,6.39
2023-02-19T09:55:36.664Z,6.52
2023-02-19T09:58:15.248Z,6.73
2023-02-19T10:00:41.838Z,6.91
2023-02-19T10:03:20.634Z,6.70
2023-02-19T10:05:47.908Z,6.55
2023-02-19T10:08:19.059Z,6.32
2023-02-19T10:10:45.638Z,6.15
2023-02-19T10:13:19.390Z,6.18
2023-02-19T10:15:51.696Z,6.22
2023-02-19T10:18:24.987Z,6.31
2023-02-19T10:20:53.206Z,6.32
2023-02-19T10:23:20.515Z,6.29
2023-02-19T10:25:54.373Z,6.26
2023-02-19T10:28:23.891Z,6.20
2023-02-19T10:30:54.045Z,6.07
2023-02-19T10:33:21.264Z,6.13
2023-02-19T10:35:58.680Z,6.05
2023-02-19T10:38:31.066Z,6.06
2023-02-19T10:41:01.777Z,6.10
2023-02-19T10:43:33.806Z,6.15
2023-02-19T10:46:04.764Z,6.14
2023-02-19T10:48:36.416Z,6.19
2023-02-19T10:51:07.192Z,6.20
2023-02-19T10:53:46.487Z,6.21
2023-02-19T10:56:33.979Z,6.27
2023-02-19T10:59:18.648Z,6.45
2023-02-19T11:02:02.415Z,6.52
2023-02-19T11:04:34.049Z,6.62
2023-02-19T11:07:18.707Z,6.66
2023-02-19T11:09:49.404Z,6.69
2023-02-19T11:12:29.651Z,6.72
2023-02-19T11:14:56.407Z,6.72
2023-02-19T11:17:28.379Z,6.77
2023-02-19T11:20:04.641Z,6.75
2023-02-19T11:22:33.864Z,6.67
2023-02-19T11:25:15.379Z,6.66
2023-02-19T11:28:08.328Z,6.60
2023-02-19T11:30:41.533Z,6.45
2023-02-19T11:33:17.206Z,6.35
2023-02-19T11:35:44.902Z,6.25
2023-02-19T11:38:13.505Z,6.20
2023-02-19T11:40:54.415Z,6.09
2023-02-19T11:43:47.347Z,6.04
2023-02-19T11:46:43.595Z,6.05
2023-02-19T11:49:48.007Z,6.08
2023-02-19T11:52:35.588Z,6.08
2023-02-19T11:55:21.935Z,6.11
2023-02-19T11:58:04.348Z,6.14
2023-02-19T12:00:31.879Z,6.11
2023-02-19T12:03:05.511Z,6.05
2023-02-19T12:05:49.699Z,6.11
2023-02-19T12:08:53.695Z,6.09
2023-02-19T12:11:34.302Z,6.04
2023-02-19T12:14:09.814Z,6.02
2023-02-19T12:16:59.625Z,6.06
2023-02-19T12:19:51.596Z,6.08
2023-02-19T12:22:32.408Z,6.08
2023-02-19T12:25:23.782Z,6.14
2023-02-19T12:27:57.966Z,6.12
2023-02-19T12:30:37.949Z,6.16
2023-02-19T12:33:28.760Z,6.23
2023-02-19T12:36:12.762Z,6.38
2023-02-19T12:38:42.052Z,6.46
2023-02-19T12:41:34.785Z,6.59
2023-02-19T12:44:11.068Z,6.53
2023-02-19T12:46:42.468Z,6.68
2023-02-19T12:49:39.276Z,6.71
2023-02-19T12:52:19.190Z,6.69
2023-02-19T12:54:50.088Z,6.85
2023-02-19T12:57:22.638Z,6.88
2023-02-19T12:59:56.118Z,6.94
2023-02-19T13:02:30.405Z,6.96
2023-02-19T13:04:59.674Z,6.95
2023-02-19T13:07:44.097Z,6.89
2023-02-19T13:10:33.847Z,6.96
2023-02-19T13:13:07.110Z,7.02
2023-02-19T13:15:42.197Z,7.13
2023-02-19T13:18:18.242Z,7.19
2023-02-19T13:20:46.582Z,7.46
2023-02-19T13:23:50.752Z,7.56
2023-02-19T13:27:01.411Z,7.51
2023-02-19T13:29:46.775Z,7.44
2023-02-19T13:32:18.838Z,7.45
2023-02-19T13:34:48.024Z,7.38
2023-02-19T13:37:16.644Z,7.21
2023-02-19T13:39:49.940Z,7.31
2023-02-19T13:42:36.366Z,7.34
2023-02-19T13:45:05.193Z,7.38
2023-02-19T13:47:49.088Z,7.28
2023-02-19T13:50:28.862Z,7.30
2023-02-19T13:52:57.164Z,7.19
2023-02-19T13:55:46.520Z,7.19
2023-02-19T13:58:35.528Z,7.23
2023-02-19T14:01:07.663Z,7.15
2023-02-19T14:03:37.115Z,7.27
2023-02-19T14:06:08.994Z,7.41
2023-02-19T14:08:56.137Z,7.30
2023-02-19T14:11:41.595Z,7.28
2023-02-19T14:14:28.638Z,7.29
2023-02-19T14:16:57.868Z,7.21
2023-02-19T14:19:42.363Z,7.19
2023-02-19T14:23:03.386Z,7.10
2023-02-19T14:25:35.549Z,6.98
2023-02-19T14:28:17.282Z,6.98
2023-02-19T14:30:46.199Z,7.02
2023-02-19T14:33:16.551Z,6.89
2023-02-19T14:35:46.143Z,6.87
2023-02-19T14:38:24.221Z,6.92
2023-02-19T14:40:53.029Z,6.97
2023-02-19T14:43:22.865Z,7.03
2023-02-19T14:46:03.956Z,7.07
2023-02-19T14:48:45.663Z,6.90
2023-02-19T14:51:29.202Z,6.81
2023-02-19T14:53:57.831Z,6.69
2023-02-19T14:56:28.352Z,6.65
2023-02-19T14:59:21.947Z,6.56
2023-02-19T15:02:17.228Z,6.52
2023-02-19T15:04:43.701Z,6.53
2023-02-19T15:07:17.269Z,6.50
2023-02-19T15:09:48.582Z,6.36
2023-02-19T15:12:28.735Z,6.35
2023-02-19T15:14:59.811Z,6.26
2023-02-19T15:17:30.042Z,6.20
2023-02-19T15:19:58.926Z,6.14
2023-02-19T15:22:28.235Z,6.09
2023-02-19T15:24:55.485Z,6.06
2023-02-19T15:27:24.624Z,6.00
2023-02-19T15:29:53.642Z,6.01
2023-02-19T15:32:23.208Z,5.99
2023-02-19T15:34:58.072Z,5.92
2023-02-19T15:37:33.607Z,5.91
2023-02-19T15:40:05.446Z,5.95
2023-02-19T15:42:34.864Z,6.00
2023-02-19T15:45:23.651Z,5.99
2023-02-19T15:48:27.338Z,5.96
2023-02-19T15:51:09.326Z,5.87
2023-02-19T15:53:47.563Z,5.86
2023-02-19T15:56:30.457Z,5.85
2023-02-19T15:58:59.433Z,5.81
2023-02-19T16:01:37.545Z,5.78
2023-02-19T16:04:06.603Z,5.79
2023-02-19T16:07:01.427Z,5.77
2023-02-19T16:09:37.069Z,5.79
2023-02-19T16:12:19.930Z,5.75
2023-02-19T16:14:46.517Z,5.72
2023-02-19T16:17:22.065Z,5.70
2023-02-19T16:19:57.649Z,5.65
2023-02-19T16:22:26.623Z,5.64
2023-02-19T16:24:58.578Z,5.62
2023-02-19T16:27:37.094Z,5.60
2023-02-19T16:30:09.865Z,5.58
2023-02-19T16:32:36.373Z,5.54
2023-02-19T16:35:02.758Z,5.52
2023-02-19T16:37:40.804Z,5.52
2023-02-19T16:40:07.416Z,5.48
2023-02-19T16:42:56.785Z,5.48
2023-02-19T16:45:25.450Z,5.46
2023-02-19T16:47:52.898Z,5.44
2023-02-19T16:50:23.386Z,5.46
2023-02-19T16:52:53.555Z,5.45
2023-02-19T16:55:20.131Z,5.44
2023-02-19T16:57:46.491Z,5.43
2023-02-19T17:00:21.573Z,5.35
2023-02-19T17:02:51.166Z,5.29
2023-02-19T17:05:19.689Z,5.27
2023-02-19T17:07:46.418Z,5.26
2023-02-19T17:10:21.046Z,5.27
2023-02-19T17:12:47.342Z,5.26
2023-02-19T17:15:13.776Z,5.29
2023-02-19T17:17:40.772Z,5.25
2023-02-19T17:20:29.384Z,5.26
2023-02-19T17:22:56.322Z,5.25
2023-02-19T17:25:22.929Z,5.21
2023-02-19T17:27:49.662Z,5.12
2023-02-19T17:30:26.775Z,5.01
2023-02-19T17:32:53.439Z,4.91
2023-02-19T17:35:20.356Z,4.82
2023-02-19T17:37:46.799Z,4.80
2023-02-19T17:40:33.184Z,4.74
2023-02-19T17:43:00.483Z,4.67
2023-02-19T17:45:27.017Z,4.65
2023-02-19T17:47:53.438Z,4.63
2023-02-19T17:50:22.644Z,4.60
2023-02-19T17:52:49.147Z,4.55
2023-02-19T17:55:18.407Z,4.51
2023-02-19T17:57:45.839Z,4.52
2023-02-19T18:00:18.000Z,4.42
2023-02-19T18:02:44.732Z,4.33
2023-02-19T18:05:11.833Z,4.29
2023-02-19T18:07:38.571Z,4.29
2023-02-19T18:10:06.534Z,4.22
2023-02-19T18:12:33.038Z,4.19
2023-02-19T18:14:59.575Z,4.19
2023-02-19T18:17:26.444Z,4.13
2023-02-19T18:19:53.391Z,4.10
2023-02-19T18:22:20.384Z,4.03
2023-02-19T18:24:54.094Z,3.98
2023-02-19T18:27:20.688Z,3.91
2023-02-19T18:29:55.415Z,3.83
2023-02-19T18:32:23.672Z,3.75
2023-02-19T18:34:55.640Z,3.70
2023-02-19T18:37:23.582Z,3.65
2023-02-19T18:39:50.379Z,3.58
2023-02-19T18:42:16.897Z,3.53
2023-02-19T18:44:46.796Z,3.51
2023-02-19T18:47:13.574Z,3.51
2023-02-19T18:49:40.085Z,3.49
2023-02-19T18:52:06.758Z,3.45
2023-02-19T18:54:33.364Z,3.43
2023-02-19T18:57:03.736Z,3.48
2023-02-19T18:59:30.960Z,3.49
2023-02-19T19:01:57.738Z,3.48
2023-02-19T19:04:24.205Z,3.46
2023-02-19T19:06:50.584Z,3.50
2023-02-19T19:09:17.005Z,3.57
2023-02-19T19:11:44.381Z,3.56
2023-02-19T19:14:10.815Z,3.56
2023-02-19T19:16:37.279Z,3.56
2023-02-19T19:19:03.689Z,3.64
2023-02-19T19:21:30.611Z,3.63
2023-02-19T19:23:57.066Z,3.65
2023-02-19T19:26:23.478Z,3.61
2023-02-19T19:28:49.883Z,3.57
2023-02-19T19:31:18.747Z,3.59
2023-02-19T19:33:46.774Z,3.62
2023-02-19T19:36:14.535Z,3.64
2023-02-19T19:38:41.306Z,3.67
2023-02-19T19:41:07.755Z,3.73
2023-02-19T19:43:34.171Z,3.74
2023-02-19T19:46:00.842Z,3.70
2023-02-19T19:48:29.887Z,3.81
2023-02-19T19:50:56.996Z,3.84
2023-02-19T19:53:24.301Z,3.83
2023-02-19T19:55:50.730Z,3.84
2023-02-19T19:58:20.860Z,3.88
2023-02-19T20:00:47.325Z,3.92
2023-02-19T20:03:14.040Z,3.93
2023-02-19T20:05:40.582Z,3.98
2023-02-19T20:08:06.989Z,4.03
2023-02-19T20:10:33.457Z,4.02
2023-02-19T20:13:00.198Z,4.08
2023-02-19T20:15:26.722Z,4.11
2023-02-19T20:17:53.085Z,4.15
2023-02-19T20:20:20.026Z,4.13
2023-02-19T20:22:46.410Z,4.09
2023-02-19T20:25:12.846Z,4.18
2023-02-19T20:27:39.280Z,4.18
2023-02-19T20:30:06.867Z,4.14
2023-02-19T20:32:33.315Z,4.18
2023-02-19T20:34:59.784Z,4.20
2023-02-19T20:37:26.306Z,4.22
2023-02-19T20:39:52.678Z,4.26
2023-02-19T20:42:19.078Z,4.29
2023-02-19T20:44:45.601Z,4.33
2023-02-19T20:47:12.142Z,4.40
2023-02-19T20:49:38.567Z,4.38
2023-02-19T20:52:06.823Z,4.41
2023-02-19T20:54:34.783Z,4.51
2023-02-19T20:57:03.641Z,4.54
2023-02-19T20:59:34.961Z,4.54
2023-02-19T21:02:06.333Z,4.54
2023-02-19T21:04:33.477Z,4.58
2023-02-19T21:06:59.929Z,4.64
2023-02-19T21:09:26.294Z,4.73
2023-02-19T21:11:53.089Z,4.72
2023-02-19T21:14:19.510Z,4.76
2023-02-19T21:16:45.991Z,4.74
2023-02-19T21:19:12.501Z,4.81
2023-02-19T21:21:40.316Z,4.84
2023-02-19T21:24:07.461Z,4.76
2023-02-19T21:26:39.277Z,4.78
2023-02-19T21:29:07.066Z,4.83
2023-02-19T21:31:48.467Z,4.81
2023-02-19T21:34:18.423Z,4.84
2023-02-19T21:36:45.601Z,4.85
2023-02-19T21:39:14.719Z,4.85
2023-02-19T21:41:41.205Z,4.84
2023-02-19T21:44:07.699Z,4.85
2023-02-19T21:46:34.210Z,4.87
2023-02-19T21:49:01.378Z,4.88
2023-02-19T21:51:36.554Z,4.92
2023-02-19T21:54:03.924Z,5.02
2023-02-19T21:56:33.919Z,5.10
2023-02-19T21:59:01.534Z,5.09
2023-02-19T22:01:32.766Z,5.09
2023-02-19T22:03:59.582Z,5.16
2023-02-19T22:06:29.177Z,5.20
2023-02-19T22:08:56.301Z,5.20
2023-02-19T22:11:23.006Z,5.29
2023-02-19T22:13:49.923Z,5.36
2023-02-19T22:16:17.056Z,5.45
2023-02-19T22:18:57.792Z,5.48
2023-02-19T22:21:26.873Z,5.53
2023-02-19T22:23:54.078Z,5.54
2023-02-19T22:26:29.056Z,5.55
2023-02-19T22:28:56.018Z,5.58
2023-02-19T22:31:24.532Z,5.64
2023-02-19T22:33:51.507Z,5.66
2023-02-19T22:36:24.087Z,5.67
2023-02-19T22:38:50.742Z,5.70
2023-02-19T22:41:18.079Z,5.76
2023-02-19T22:43:45.005Z,5.85
2023-02-19T22:46:16.744Z,5.85
2023-02-19T22:48:43.456Z,5.86
2023-02-19T22:51:15.322Z,5.87
2023-02-19T22:53:50.421Z,5.94
2023-02-19T22:56:18.514Z,5.98
2023-02-19T22:58:45.230Z,6.02
2023-02-19T23:01:13.432Z,5.96
2023-02-19T23:03:50.135Z,5.97
2023-02-19T23:06:20.666Z,6.02
2023-02-19T23:08:47.078Z,6.10
2023-02-19T23:11:20.031Z,6.16
2023-02-19T23:13:46.460Z,6.18
2023-02-19T23:16:13.128Z,6.21
2023-02-19T23:18:39.773Z,6.21
2023-02-19T23:21:06.258Z,6.18
2023-02-19T23:23:32.647Z,6.20
2023-02-19T23:25:59.060Z,6.25
2023-02-19T23:28:25.512Z,6.24
2023-02-19T23:30:52.056Z,6.28
2023-02-19T23:33:18.547Z,6.29
2023-02-19T23:35:44.929Z,6.31
2023-02-19T23:38:11.743Z,6.35
2023-02-19T23:40:38.163Z,6.35
2023-02-19T23:43:04.665Z,6.41
2023-02-19T23:45:31.145Z,6.42
2023-02-19T23:47:57.532Z,6.39
2023-02-19T23:50:24.001Z,6.39
2023-02-19T23:52:50.738Z,6.34
2023-02-19T23:55:17.314Z,6.33
2023-02-19T23:57:43.700Z,6.32
